createdAt,value
2022-11-06T00:01:08.709Z,93.65
2022-11-06T00:03:30.266Z,92.37
2022-11-06T00:06:10.298Z,92.35
2022-11-06T00:08:39.092Z,93.33
2022-11-06T00:11:01.158Z,92.98
2022-11-06T00:13:22.963Z,92.54
2022-11-06T00:15:44.460Z,91.61
2022-11-06T00:18:05.976Z,91.84
2022-11-06T00:20:27.482Z,91.96
2022-11-06T00:22:49.012Z,92.18
2022-11-06T00:25:11.110Z,92.16
2022-11-06T00:27:36.199Z,91.42
2022-11-06T00:29:57.670Z,93.22
2022-11-06T00:32:19.167Z,93.25
2022-11-06T00:34:40.627Z,92.40
2022-11-06T00:37:02.139Z,91.73
2022-11-06T00:39:23.728Z,90.86
2022-11-06T00:41:45.206Z,91.95
2022-11-06T00:44:06.667Z,92.36
2022-11-06T00:46:28.694Z,92.25
2022-11-06T00:48:50.682Z,91.62
2022-11-06T00:51:18.378Z,90.95
2022-11-06T00:53:40.566Z,90.70
2022-11-06T00:56:11.117Z,90.72
2022-11-06T00:58:32.733Z,91.00
2022-11-06T01:00:54.208Z,90.95
2022-11-06T01:03:15.691Z,92.36
2022-11-06T01:05:37.166Z,90.79
2022-11-06T01:07:58.645Z,90.42
2022-11-06T01:10:20.151Z,89.90
2022-11-06T01:12:41.870Z,88.98
2022-11-06T01:15:03.601Z,88.51
2022-11-06T01:17:25.234Z,87.71
2022-11-06T01:19:46.964Z,87.63
2022-11-06T01:22:08.663Z,86.77
2022-11-06T01:24:30.640Z,87.65
2022-11-06T01:27:24.254Z,87.76
2022-11-06T01:29:34.622Z,87.75
2022-11-06T01:31:56.113Z,87.94
2022-11-06T01:34:19.594Z,88.20
2022-11-06T01:36:41.187Z,89.96
2022-11-06T01:39:05.308Z,89.42
2022-11-06T01:41:32.974Z,88.76
2022-11-06T01:43:57.698Z,89.09
2022-11-06T01:46:20.964Z,88.19
2022-11-06T01:48:47.530Z,87.62
2022-11-06T01:51:09.289Z,87.16
2022-11-06T01:53:30.992Z,87.22
2022-11-06T01:55:58.494Z,86.27
2022-11-06T01:58:22.624Z,86.54
2022-11-06T02:00:44.779Z,86.31
2022-11-06T02:03:07.054Z,85.37
2022-11-06T02:05:28.958Z,84.80
2022-11-06T02:07:51.671Z,84.69
2022-11-06T02:10:13.227Z,84.42
2022-11-06T02:13:10.175Z,84.79
2022-11-06T02:15:39.185Z,84.22
2022-11-06T02:18:18.959Z,83.78
2022-11-06T02:20:46.466Z,84.30
2022-11-06T02:23:29.654Z,85.60
2022-11-06T02:26:35.755Z,86.57
2022-11-06T02:29:18.758Z,89.32
2022-11-06T02:31:42.872Z,89.69
2022-11-06T02:34:12.211Z,93.94
2022-11-06T02:36:37.757Z,94.75
2022-11-06T02:39:03.256Z,95.76
2022-11-06T02:41:30.323Z,96.20
2022-11-06T02:43:58.056Z,96.77
2022-11-06T02:46:36.672Z,97.25
2022-11-06T02:49:43.068Z,97.12
2022-11-06T02:52:16.253Z,95.46
2022-11-06T02:54:43.183Z,94.84
2022-11-06T02:57:10.324Z,93.89
2022-11-06T02:59:46.965Z,92.27
2022-11-06T03:02:14.716Z,93.24
2022-11-06T03:04:55.477Z,92.63
2022-11-06T03:07:23.575Z,91.67
2022-11-06T03:09:45.600Z,90.13
2022-11-06T03:12:19.290Z,89.88
2022-11-06T03:15:06.271Z,90.53
2022-11-06T03:17:39.214Z,92.08
2022-11-06T03:20:31.511Z,92.24
2022-11-06T03:23:02.990Z,91.75
2022-11-06T03:25:29.941Z,91.45
2022-11-06T03:28:10.392Z,90.61
2022-11-06T03:30:41.875Z,89.63
2022-11-06T03:33:13.818Z,88.93
2022-11-06T03:35:42.909Z,87.46
2022-11-06T03:38:18.192Z,85.93
2022-11-06T03:40:45.304Z,85.46
2022-11-06T03:43:08.913Z,84.31
2022-11-06T03:45:32.959Z,84.11
2022-11-06T03:48:15.157Z,83.63
2022-11-06T03:50:43.132Z,84.20
2022-11-06T03:53:48.299Z,84.02
2022-11-06T03:56:17.338Z,84.46
2022-11-06T03:58:44.325Z,85.81
2022-11-06T04:01:08.683Z,86.66
2022-11-06T04:03:37.346Z,86.40
2022-11-06T04:06:05.596Z,86.73
2022-11-06T04:08:47.340Z,86.96
2022-11-06T04:11:30.967Z,87.72
2022-11-06T04:14:02.935Z,86.91
2022-11-06T04:16:27.410Z,87.21
2022-11-06T04:18:48.883Z,87.43
2022-11-06T04:21:25.831Z,87.57
2022-11-06T04:24:17.777Z,88.22
2022-11-06T04:26:53.581Z,87.35
2022-11-06T04:29:38.106Z,88.37
2022-11-06T04:32:42.164Z,89.14
2022-11-06T04:35:22.264Z,89.23
2022-11-06T04:38:00.658Z,88.92
2022-11-06T04:40:27.817Z,89.13
2022-11-06T04:42:58.395Z,89.54
2022-11-06T04:45:31.641Z,90.08
2022-11-06T04:47:54.924Z,91.35
2022-11-06T04:50:20.470Z,91.36
2022-11-06T04:52:43.559Z,90.19
2022-11-06T04:55:05.602Z,89.82
2022-11-06T04:57:27.289Z,89.67
2022-11-06T04:59:48.976Z,89.54
2022-11-06T05:02:11.300Z,89.83
2022-11-06T05:04:33.690Z,89.42
2022-11-06T05:06:55.291Z,89.57
2022-11-06T05:09:17.054Z,90.11
2022-11-06T05:11:38.530Z,90.93
2022-11-06T05:14:00.073Z,90.46
2022-11-06T05:16:21.628Z,90.05
2022-11-06T05:18:43.121Z,88.89
2022-11-06T05:21:23.240Z,88.67
2022-11-06T05:23:44.724Z,88.79
2022-11-06T05:26:07.508Z,89.59
2022-11-06T05:28:29.010Z,89.60
2022-11-06T05:30:50.480Z,89.22
2022-11-06T05:33:11.952Z,88.36
2022-11-06T05:35:33.436Z,88.72
2022-11-06T05:38:02.322Z,89.23
2022-11-06T05:40:23.750Z,88.45
2022-11-06T05:42:45.561Z,89.14
2022-11-06T05:45:07.979Z,89.05
2022-11-06T05:47:29.458Z,88.07
2022-11-06T05:49:51.180Z,88.22
2022-11-06T05:52:12.706Z,87.23
2022-11-06T05:54:34.196Z,87.45
2022-11-06T05:56:55.647Z,87.89
2022-11-06T05:59:17.158Z,87.48
2022-11-06T06:01:38.725Z,88.18
2022-11-06T06:04:00.365Z,87.14
2022-11-06T06:06:21.898Z,87.42
2022-11-06T06:08:43.386Z,87.71
2022-11-06T06:11:08.256Z,87.46
2022-11-06T06:13:29.748Z,88.21
2022-11-06T06:15:51.206Z,88.02
2022-11-06T06:18:13.639Z,88.76
2022-11-06T06:20:35.854Z,89.34
2022-11-06T06:22:58.751Z,88.36
2022-11-06T06:25:22.971Z,88.99
2022-11-06T06:27:44.736Z,89.18
2022-11-06T06:30:07.101Z,88.60
2022-11-06T06:32:28.581Z,87.29
2022-11-06T06:34:50.066Z,88.34
2022-11-06T06:37:12.786Z,88.28
2022-11-06T06:39:35.820Z,87.98
2022-11-06T06:41:57.280Z,87.90
2022-11-06T06:44:18.769Z,87.36
2022-11-06T06:46:40.271Z,87.67
2022-11-06T06:49:01.750Z,86.50
2022-11-06T06:51:24.120Z,86.20
2022-11-06T06:53:45.810Z,85.78
2022-11-06T06:56:07.440Z,85.98
2022-11-06T06:58:29.896Z,85.99
2022-11-06T07:00:51.448Z,87.22
2022-11-06T07:03:13.106Z,88.18
2022-11-06T07:05:34.586Z,88.31
2022-11-06T07:07:56.821Z,87.29
2022-11-06T07:10:18.728Z,88.09
2022-11-06T07:12:40.294Z,88.13
2022-11-06T07:15:01.805Z,87.40
2022-11-06T07:17:23.306Z,86.63
2022-11-06T07:19:44.809Z,86.46
2022-11-06T07:22:06.261Z,86.15
2022-11-06T07:24:27.803Z,85.74
2022-11-06T07:26:49.877Z,86.07
2022-11-06T07:29:11.439Z,86.90
2022-11-06T07:31:32.885Z,88.28
2022-11-06T07:33:54.378Z,87.83
2022-11-06T07:36:15.951Z,87.98
2022-11-06T07:38:39.076Z,88.39
2022-11-06T07:41:14.726Z,88.06
2022-11-06T07:43:36.983Z,86.85
2022-11-06T07:46:02.998Z,87.94
2022-11-06T07:48:24.477Z,88.39
2022-11-06T07:50:45.946Z,87.86
2022-11-06T07:53:07.997Z,88.13
2022-11-06T07:55:29.534Z,88.65
2022-11-06T07:57:51.032Z,88.38
2022-11-06T08:00:13.451Z,88.84
2022-11-06T08:02:35.152Z,88.07
2022-11-06T08:04:56.722Z,87.24
2022-11-06T08:07:18.183Z,87.38
2022-11-06T08:09:39.657Z,87.50
2022-11-06T08:12:01.880Z,86.70
2022-11-06T08:14:23.614Z,86.31
2022-11-06T08:16:45.098Z,85.08
2022-11-06T08:19:06.703Z,84.75
2022-11-06T08:21:28.344Z,84.84
2022-11-06T08:23:49.827Z,84.91
2022-11-06T08:26:11.590Z,84.60
2022-11-06T08:28:33.191Z,84.46
2022-11-06T08:30:54.995Z,84.18
2022-11-06T08:33:16.529Z,83.14
2022-11-06T08:35:38.298Z,83.33
2022-11-06T08:38:00.086Z,83.18
2022-11-06T08:40:23.415Z,83.29
2022-11-06T08:42:48.143Z,82.55
2022-11-06T08:45:10.045Z,82.43
2022-11-06T08:47:31.616Z,82.87
2022-11-06T08:49:53.150Z,82.22
2022-11-06T08:52:14.717Z,82.02
2022-11-06T08:54:36.183Z,81.63
2022-11-06T08:56:58.449Z,82.73
2022-11-06T08:59:19.938Z,83.90
2022-11-06T09:01:41.598Z,83.45
2022-11-06T09:04:03.238Z,84.15
2022-11-06T09:06:25.487Z,84.44
2022-11-06T09:08:46.994Z,84.19
2022-11-06T09:11:08.544Z,83.44
2022-11-06T09:13:30.030Z,83.01
2022-11-06T09:15:51.544Z,82.97
2022-11-06T09:18:13.076Z,83.30
2022-11-06T09:20:34.830Z,83.84
2022-11-06T09:23:04.693Z,83.16
2022-11-06T09:25:26.156Z,83.98
2022-11-06T09:27:57.635Z,83.50
2022-11-06T09:30:23.074Z,82.17
2022-11-06T09:32:49.446Z,81.53
2022-11-06T09:35:10.926Z,82.92
2022-11-06T09:37:32.419Z,82.11
2022-11-06T09:39:53.879Z,83.01
2022-11-06T09:42:44.859Z,83.76
2022-11-06T09:45:23.091Z,82.09
2022-11-06T09:47:50.018Z,83.08
2022-11-06T09:50:19.808Z,83.67
2022-11-06T09:53:07.542Z,84.25
2022-11-06T09:55:34.653Z,82.54
2022-11-06T09:58:00.142Z,84.00
2022-11-06T10:00:22.076Z,86.38
2022-11-06T10:02:49.558Z,86.23
2022-11-06T10:05:11.175Z,85.62
2022-11-06T10:07:39.599Z,86.14
2022-11-06T10:10:04.080Z,84.54
2022-11-06T10:12:31.403Z,84.81
2022-11-06T10:14:59.709Z,83.98
2022-11-06T10:17:56.689Z,82.41
2022-11-06T10:20:26.901Z,79.89
2022-11-06T10:23:13.314Z,81.02
2022-11-06T10:26:00.642Z,80.45
2022-11-06T10:28:42.577Z,80.40
2022-11-06T10:31:26.201Z,79.80
2022-11-06T10:34:12.239Z,80.56
2022-11-06T10:36:46.060Z,80.04
2022-11-06T10:39:19.960Z,81.55
2022-11-06T10:41:47.043Z,81.38
2022-11-06T10:44:26.234Z,79.76
2022-11-06T10:46:53.489Z,79.17
2022-11-06T10:49:28.395Z,77.52
2022-11-06T10:52:14.670Z,78.43
2022-11-06T10:54:58.015Z,77.14
2022-11-06T10:57:45.067Z,76.96
2022-11-06T11:00:11.974Z,77.77
2022-11-06T11:02:42.622Z,77.67
2022-11-06T11:05:13.089Z,76.20
2022-11-06T11:07:35.042Z,76.45
2022-11-06T11:09:56.536Z,77.32
2022-11-06T11:12:28.166Z,75.35
2022-11-06T11:15:12.075Z,76.09
2022-11-06T11:17:33.550Z,76.41
2022-11-06T11:19:55.118Z,76.99
2022-11-06T11:22:16.540Z,73.74
2022-11-06T11:24:58.887Z,76.28
2022-11-06T11:27:20.402Z,77.29
2022-11-06T11:29:44.838Z,78.90
2022-11-06T11:32:07.188Z,78.01
2022-11-06T11:34:32.244Z,77.95
2022-11-06T11:37:06.238Z,76.50
2022-11-06T11:39:36.871Z,77.96
2022-11-06T11:42:31.949Z,78.02
2022-11-06T11:45:09.889Z,78.44
2022-11-06T11:47:31.406Z,78.14
2022-11-06T11:49:52.881Z,81.17
2022-11-06T11:52:19.941Z,80.79
2022-11-06T11:54:55.691Z,79.55
2022-11-06T11:57:24.960Z,78.13
2022-11-06T11:59:50.759Z,78.61
2022-11-06T12:02:30.159Z,80.27
2022-11-06T12:04:56.321Z,77.92
2022-11-06T12:07:27.111Z,77.69
2022-11-06T12:09:48.785Z,76.45
2022-11-06T12:12:23.765Z,75.50
2022-11-06T12:14:45.304Z,76.02
2022-11-06T12:17:21.683Z,75.88
2022-11-06T12:19:50.313Z,75.38
2022-11-06T12:22:41.890Z,74.78
2022-11-06T12:25:14.769Z,74.09
2022-11-06T12:27:43.808Z,75.03
2022-11-06T12:30:07.303Z,74.58
2022-11-06T12:32:53.100Z,74.59
2022-11-06T12:35:40.341Z,73.78
2022-11-06T12:38:24.428Z,73.31
2022-11-06T12:40:57.266Z,72.79
2022-11-06T12:43:40.943Z,73.24
2022-11-06T12:46:29.276Z,72.29
2022-11-06T12:49:21.833Z,71.40
2022-11-06T12:51:47.614Z,72.89
2022-11-06T12:54:41.280Z,71.61
2022-11-06T12:57:21.616Z,71.71
2022-11-06T13:00:00.022Z,71.16
2022-11-06T13:03:00.115Z,71.26
2022-11-06T13:05:46.783Z,72.47
2022-11-06T13:08:44.085Z,71.27
2022-11-06T13:11:45.226Z,72.05
2022-11-06T13:14:34.774Z,72.34
2022-11-06T13:17:11.195Z,70.69
2022-11-06T13:19:32.617Z,71.62
2022-11-06T13:22:24.761Z,73.15
2022-11-06T13:24:53.842Z,73.75
2022-11-06T13:27:28.356Z,73.56
2022-11-06T13:29:51.178Z,72.94
2022-11-06T13:32:17.693Z,72.77
2022-11-06T13:34:42.232Z,73.35
2022-11-06T13:37:12.501Z,72.17
2022-11-06T13:39:40.910Z,71.93
2022-11-06T13:42:05.330Z,70.72
2022-11-06T13:44:27.445Z,70.89
2022-11-06T13:46:54.435Z,70.25
2022-11-06T13:49:18.914Z,70.34
2022-11-06T13:52:03.190Z,68.89
2022-11-06T13:54:59.876Z,68.57
2022-11-06T13:57:40.070Z,67.68
2022-11-06T14:00:14.539Z,67.80
2022-11-06T14:03:10.123Z,67.82
2022-11-06T14:05:55.733Z,67.80
2022-11-06T14:08:28.216Z,68.11
2022-11-06T14:11:00.536Z,67.60
2022-11-06T14:13:28.019Z,65.75
2022-11-06T14:15:49.551Z,65.65
2022-11-06T14:18:22.261Z,66.25
2022-11-06T14:20:43.998Z,65.56
2022-11-06T14:23:30.201Z,67.11
2022-11-06T14:26:09.449Z,67.48
2022-11-06T14:28:33.857Z,68.24
2022-11-06T14:31:13.221Z,68.60
2022-11-06T14:33:42.131Z,69.81
2022-11-06T14:36:14.132Z,68.76
2022-11-06T14:38:36.121Z,68.25
2022-11-06T14:40:58.524Z,68.74
2022-11-06T14:43:22.174Z,68.56
2022-11-06T14:45:58.145Z,68.52
2022-11-06T14:48:50.581Z,68.33
2022-11-06T14:51:14.411Z,68.17
2022-11-06T14:53:40.105Z,67.40
2022-11-06T14:56:08.117Z,67.23
2022-11-06T14:58:36.298Z,68.70
2022-11-06T15:01:13.658Z,69.49
2022-11-06T15:03:44.431Z,69.61
2022-11-06T15:06:28.685Z,68.96
2022-11-06T15:08:50.113Z,68.85
2022-11-06T15:11:29.793Z,69.04
2022-11-06T15:13:51.281Z,69.28
2022-11-06T15:16:13.204Z,69.40
2022-11-06T15:18:36.397Z,69.94
2022-11-06T15:21:04.847Z,70.01
2022-11-06T15:23:38.993Z,71.62
2022-11-06T15:26:15.754Z,70.96
2022-11-06T15:29:06.645Z,72.29
2022-11-06T15:31:29.850Z,72.53
2022-11-06T15:33:56.024Z,72.57
2022-11-06T15:36:19.548Z,71.95
2022-11-06T15:38:42.835Z,71.74
2022-11-06T15:41:07.250Z,70.83
2022-11-06T15:43:35.709Z,71.55
2022-11-06T15:46:12.240Z,71.09
2022-11-06T15:48:33.949Z,71.13
2022-11-06T15:50:55.501Z,71.55
2022-11-06T15:53:22.129Z,71.05
2022-11-06T15:56:06.120Z,70.98
2022-11-06T15:58:35.922Z,71.73
2022-11-06T16:00:59.608Z,70.90
2022-11-06T16:03:26.905Z,71.14
2022-11-06T16:05:48.920Z,70.44
2022-11-06T16:08:13.216Z,70.03
2022-11-06T16:10:37.243Z,71.16
2022-11-06T16:12:59.047Z,71.53
2022-11-06T16:15:42.651Z,73.42
2022-11-06T16:18:06.237Z,75.42
2022-11-06T16:20:28.028Z,77.12
2022-11-06T16:22:49.519Z,77.25
2022-11-06T16:25:19.498Z,77.13
2022-11-06T16:27:41.939Z,77.94
2022-11-06T16:30:04.836Z,77.96
2022-11-06T16:32:29.695Z,76.87
2022-11-06T16:34:51.864Z,79.48
2022-11-06T16:37:16.081Z,78.04
2022-11-06T16:39:52.806Z,77.78
2022-11-06T16:42:35.969Z,76.78
2022-11-06T16:45:03.054Z,77.07
2022-11-06T16:47:24.644Z,76.73
2022-11-06T16:49:53.721Z,77.23
2022-11-06T16:52:18.560Z,75.79
2022-11-06T16:54:40.087Z,75.21
2022-11-06T16:57:13.390Z,76.20
2022-11-06T16:59:35.298Z,76.92
2022-11-06T17:01:56.923Z,77.06
2022-11-06T17:04:24.624Z,78.53
2022-11-06T17:06:46.572Z,79.94
2022-11-06T17:09:28.738Z,80.59
2022-11-06T17:11:55.169Z,80.26
2022-11-06T17:14:21.216Z,79.57
2022-11-06T17:16:49.696Z,81.53
2022-11-06T17:19:11.200Z,80.49
2022-11-06T17:21:32.715Z,79.76
2022-11-06T17:23:57.653Z,79.83
2022-11-06T17:26:28.545Z,80.56
2022-11-06T17:28:50.808Z,79.36
2022-11-06T17:31:14.712Z,80.27
2022-11-06T17:33:36.253Z,80.14
2022-11-06T17:35:57.817Z,80.84
2022-11-06T17:38:19.347Z,80.52
2022-11-06T17:40:41.972Z,80.86
2022-11-06T17:43:03.423Z,80.62
2022-11-06T17:45:25.066Z,80.33
2022-11-06T17:47:46.547Z,79.79
2022-11-06T17:50:08.686Z,81.25
2022-11-06T17:52:31.179Z,81.82
2022-11-06T17:54:52.752Z,80.70
2022-11-06T17:57:16.448Z,81.78
2022-11-06T17:59:41.284Z,81.58
2022-11-06T18:02:03.100Z,81.50
2022-11-06T18:04:26.830Z,81.24
2022-11-06T18:06:49.873Z,81.22
2022-11-06T18:09:11.943Z,81.55
2022-11-06T18:11:34.597Z,82.08
2022-11-06T18:13:56.320Z,82.28
2022-11-06T18:16:24.695Z,83.59
2022-11-06T18:18:46.456Z,83.16
2022-11-06T18:21:08.031Z,84.51
2022-11-06T18:23:29.802Z,84.99
2022-11-06T18:25:57.450Z,85.60
2022-11-06T18:28:19.749Z,84.91
2022-11-06T18:30:41.406Z,84.78
2022-11-06T18:33:02.896Z,85.63
2022-11-06T18:35:24.546Z,85.43
2022-11-06T18:37:46.086Z,85.28
2022-11-06T18:40:08.100Z,85.18
2022-11-06T18:42:29.586Z,84.46
2022-11-06T18:44:51.059Z,84.33
2022-11-06T18:47:12.517Z,84.17
2022-11-06T18:49:34.035Z,84.24
2022-11-06T18:51:55.514Z,84.69
2022-11-06T18:54:17.116Z,83.63
2022-11-06T18:56:39.109Z,84.23
2022-11-06T18:59:00.682Z,84.15
2022-11-06T19:01:25.934Z,84.28
2022-11-06T19:03:47.670Z,85.20
2022-11-06T19:06:16.123Z,85.36
2022-11-06T19:08:37.940Z,85.08
2022-11-06T19:11:02.183Z,85.38
2022-11-06T19:13:23.697Z,84.35
2022-11-06T19:15:45.446Z,83.92
2022-11-06T19:18:07.067Z,83.48
2022-11-06T19:20:28.599Z,84.59
2022-11-06T19:22:53.903Z,84.66
2022-11-06T19:25:15.481Z,84.97
2022-11-06T19:27:36.950Z,84.68
2022-11-06T19:29:58.411Z,85.62
2022-11-06T19:32:19.901Z,85.13
2022-11-06T19:34:41.773Z,85.88
2022-11-06T19:37:03.270Z,85.69
2022-11-06T19:39:24.805Z,86.04
2022-11-06T19:41:46.393Z,86.45
2022-11-06T19:44:09.699Z,88.05
2022-11-06T19:46:35.672Z,87.86
2022-11-06T19:48:57.963Z,87.35
2022-11-06T19:51:20.833Z,88.39
2022-11-06T19:53:42.863Z,87.33
2022-11-06T19:56:08.986Z,88.42
2022-11-06T19:58:30.584Z,89.21
2022-11-06T20:00:52.068Z,89.83
2022-11-06T20:03:13.875Z,89.21
2022-11-06T20:05:35.723Z,89.82
2022-11-06T20:07:57.189Z,89.99
2022-11-06T20:10:18.634Z,89.73
2022-11-06T20:12:40.164Z,90.10
2022-11-06T20:15:01.636Z,90.56
2022-11-06T20:17:23.148Z,88.91
2022-11-06T20:19:44.634Z,87.82
2022-11-06T20:22:06.108Z,87.84
2022-11-06T20:24:27.563Z,87.63
2022-11-06T20:26:49.154Z,89.41
2022-11-06T20:29:10.657Z,88.13
2022-11-06T20:31:33.267Z,88.61
2022-11-06T20:33:57.613Z,88.60
2022-11-06T20:36:23.220Z,88.43
2022-11-06T20:38:46.041Z,87.80
2022-11-06T20:41:07.770Z,87.51
2022-11-06T20:43:29.211Z,88.49
2022-11-06T20:45:50.931Z,88.54
2022-11-06T20:48:12.426Z,89.09
2022-11-06T20:50:34.139Z,89.92
2022-11-06T20:52:55.617Z,90.56
2022-11-06T20:55:17.089Z,90.71
2022-11-06T20:57:38.577Z,91.36
2022-11-06T21:00:00.039Z,91.19
2022-11-06T21:02:21.661Z,89.98
2022-11-06T21:04:43.360Z,88.92
2022-11-06T21:07:04.884Z,89.54
2022-11-06T21:09:26.361Z,89.20
2022-11-06T21:11:47.834Z,88.31
2022-11-06T21:14:09.336Z,87.56
2022-11-06T21:16:34.047Z,86.52
2022-11-06T21:18:56.157Z,87.12
2022-11-06T21:21:21.624Z,86.21
2022-11-06T21:23:43.398Z,86.66
2022-11-06T21:26:17.013Z,87.47
2022-11-06T21:28:41.071Z,86.49
2022-11-06T21:31:03.370Z,86.98
2022-11-06T21:33:25.195Z,86.73
2022-11-06T21:35:46.689Z,86.81
2022-11-06T21:38:08.645Z,87.92
2022-11-06T21:40:30.249Z,88.68
2022-11-06T21:42:51.744Z,89.26
2022-11-06T21:45:14.915Z,89.14
2022-11-06T21:47:36.788Z,89.06
2022-11-06T21:49:58.254Z,89.08
2022-11-06T21:52:40.211Z,90.09
2022-11-06T21:55:19.980Z,90.20
2022-11-06T21:57:41.483Z,91.01
2022-11-06T22:00:03.335Z,90.76
2022-11-06T22:02:24.942Z,90.46
2022-11-06T22:04:46.792Z,89.75
2022-11-06T22:07:08.283Z,89.67
2022-11-06T22:09:29.783Z,89.49
2022-11-06T22:11:51.280Z,89.04
2022-11-06T22:14:15.463Z,88.56
2022-11-06T22:16:39.738Z,86.57
2022-11-06T22:19:01.469Z,86.56
2022-11-06T22:21:26.013Z,85.78
2022-11-06T22:23:48.084Z,84.43
2022-11-06T22:26:13.338Z,84.49
2022-11-06T22:28:35.200Z,84.58
2022-11-06T22:30:56.773Z,83.61
2022-11-06T22:33:18.260Z,82.84
2022-11-06T22:35:39.723Z,82.03
2022-11-06T22:38:01.166Z,80.35
2022-11-06T22:40:22.650Z,79.33
2022-11-06T22:42:48.520Z,79.24
2022-11-06T22:45:11.154Z,78.60
2022-11-06T22:47:32.914Z,78.07
2022-11-06T22:49:54.387Z,78.36
2022-11-06T22:52:15.907Z,77.09
2022-11-06T22:54:37.380Z,75.82
2022-11-06T22:56:58.851Z,75.26
2022-11-06T22:59:21.611Z,75.04
2022-11-06T23:01:43.819Z,73.98
2022-11-06T23:04:08.924Z,75.41
2022-11-06T23:06:30.916Z,74.69
2022-11-06T23:08:52.747Z,74.23
2022-11-06T23:11:17.236Z,74.35
2022-11-06T23:13:39.837Z,74.03
2022-11-06T23:16:07.319Z,74.90
2022-11-06T23:18:28.864Z,72.86
2022-11-06T23:20:50.383Z,73.56
2022-11-06T23:23:12.024Z,74.29
2022-11-06T23:25:33.698Z,73.68
2022-11-06T23:27:55.715Z,73.76
2022-11-06T23:30:17.251Z,73.36
2022-11-06T23:32:39.886Z,73.97
2022-11-06T23:35:04.456Z,75.09
2022-11-06T23:37:26.713Z,74.85
2022-11-06T23:39:48.316Z,74.18
2022-11-06T23:42:13.381Z,74.74
2022-11-06T23:44:53.322Z,73.90
2022-11-06T23:47:14.811Z,73.63
2022-11-06T23:49:36.299Z,75.50
2022-11-06T23:51:58.075Z,76.17
2022-11-06T23:54:19.544Z,76.85
2022-11-06T23:56:41.208Z,77.16
2022-11-06T23:59:02.802Z,77.90
